Time;durP1;ratioP1;P1;durP2;ratioP2;P2;SDS_P1;SDS_P2;PMS_P1;PMS_P2;Temp;Humidity;BMP_temperature;BMP_pressure;BME280_temperature;BME280_humidity;BME280_pressure;Samples;Min_cycle;Max_cycle;Signal;HPM_P1;HPM_P2
2022/06/18 00:02:59;;;;;;;11.80;5.63;;;;;;;;;;8497564;27;20039;-91
2022/06/18 00:07:05;;;;;;;7.95;5.38;;;;;;;;;;8488447;27;20114;-91
2022/06/18 00:15:34;;;;;;;8.60;5.68;;;;;;;;;;8491631;27;20466;-90
2022/06/18 00:19:38;;;;;;;7.75;5.47;;;;;;;;;;8493277;27;20391;-91
2022/06/18 00:23:41;;;;;;;8.77;5.35;;;;;;;;;;8485617;27;20475;-90
2022/06/18 00:27:44;;;;;;;9.90;6.07;;;;;;;;;;8467778;27;20059;-90
2022/06/18 00:31:48;;;;;;;8.82;5.40;;;;;;;;;;8489661;27;20051;-89
2022/06/18 00:35:56;;;;;;;8.20;5.47;;;;;;;;;;8487478;27;20056;-89
2022/06/18 00:40:00;;;;;;;7.95;5.80;;;;;;;;;;8493952;27;20039;-90
2022/06/18 00:44:07;;;;;;;12.73;5.57;;;;;;;;;;8496869;27;20047;-89
2022/06/18 00:48:23;;;;;;;8.45;5.65;;;;;;;;;;8471932;27;20616;-90
2022/06/18 00:52:32;;;;;;;10.38;5.85;;;;;;;;;;8491494;27;20047;-90
2022/06/18 00:56:40;;;;;;;8.05;5.43;;;;;;;;;;8488115;27;20372;-90
2022/06/18 01:00:45;;;;;;;9.13;5.18;;;;;;;;;;8494078;27;20047;-91
2022/06/18 01:04:49;;;;;;;7.88;5.05;;;;;;;;;;8489522;27;20406;-90
2022/06/18 01:09:07;;;;;;;8.60;5.20;;;;;;;;;;8498539;27;20043;-90
2022/06/18 01:13:13;;;;;;;9.27;5.57;;;;;;;;;;8486993;27;20036;-90
2022/06/18 01:17:16;;;;;;;9.45;5.95;;;;;;;;;;8484906;27;20047;-91
2022/06/18 01:21:34;;;;;;;10.07;5.65;;;;;;;;;;8489605;28;20452;-91
2022/06/18 01:25:38;;;;;;;8.13;5.60;;;;;;;;;;8484801;28;20043;-90
2022/06/18 01:29:42;;;;;;;9.85;5.95;;;;;;;;;;8488422;28;20070;-92
2022/06/18 01:33:46;;;;;;;9.27;5.40;;;;;;;;;;8675119;22;20385;-90
2022/06/18 01:37:50;;;;;;;10.38;6.00;;;;;;;;;;8320400;28;20095;-89
2022/06/18 01:41:59;;;;;;;9.00;5.97;;;;;;;;;;8309822;28;20046;-90
2022/06/18 01:46:02;;;;;;;7.95;5.68;;;;;;;;;;8318889;28;20482;-90
2022/06/18 01:50:13;;;;;;;11.25;5.72;;;;;;;;;;8327636;28;20049;-90
2022/06/18 01:54:20;;;;;;;9.65;5.95;;;;;;;;;;8324518;28;20034;-87
2022/06/18 01:58:29;;;;;;;8.13;5.75;;;;;;;;;;8328103;28;20400;-92
2022/06/18 02:02:31;;;;;;;9.07;5.72;;;;;;;;;;8339634;28;20473;-87
2022/06/18 02:06:37;;;;;;;12.07;6.07;;;;;;;;;;8328162;28;20480;-87
2022/06/18 02:10:44;;;;;;;8.82;5.93;;;;;;;;;;8334254;28;20119;-91
2022/06/18 02:14:53;;;;;;;9.55;5.95;;;;;;;;;;8334134;28;20400;-91
2022/06/18 02:18:58;;;;;;;9.10;5.93;;;;;;;;;;8332362;28;20045;-90
2022/06/18 02:23:01;;;;;;;9.68;5.90;;;;;;;;;;8332241;28;20042;-90
2022/06/18 02:27:05;;;;;;;9.60;6.13;;;;;;;;;;8327194;28;20058;-89
2022/06/18 02:31:15;;;;;;;9.88;6.18;;;;;;;;;;8334300;28;20102;-87
2022/06/18 02:35:17;;;;;;;10.85;6.38;;;;;;;;;;8328804;28;20110;-88
2022/06/18 02:39:30;;;;;;;9.48;5.97;;;;;;;;;;8329741;28;20504;-87
2022/06/18 02:43:34;;;;;;;10.18;6.47;;;;;;;;;;8330316;28;20041;-90
2022/06/18 02:47:38;;;;;;;9.02;6.13;;;;;;;;;;8321949;28;20090;-89
2022/06/18 02:51:44;;;;;;;9.27;6.07;;;;;;;;;;8332705;28;20160;-90
2022/06/18 02:55:49;;;;;;;10.88;6.40;;;;;;;;;;8332659;28;20041;-89
2022/06/18 02:59:52;;;;;;;10.52;6.50;;;;;;;;;;8322883;28;20382;-89
2022/06/18 03:03:58;;;;;;;10.35;6.70;;;;;;;;;;8328486;28;20393;-91
2022/06/18 03:08:01;;;;;;;10.20;6.63;;;;;;;;;;8331196;28;20041;-90
2022/06/18 03:12:10;;;;;;;10.10;6.45;;;;;;;;;;8330727;28;20481;-90
2022/06/18 03:16:22;;;;;;;10.07;6.20;;;;;;;;;;8330735;28;20503;-90
2022/06/18 03:20:38;;;;;;;11.07;6.90;;;;;;;;;;8332750;28;20127;-90
2022/06/18 03:24:42;;;;;;;9.32;6.43;;;;;;;;;;8331322;28;20439;-88
2022/06/18 03:28:45;;;;;;;11.15;6.80;;;;;;;;;;8330669;28;20041;-88
2022/06/18 03:32:47;;;;;;;10.05;6.63;;;;;;;;;;8330457;28;20049;-90
2022/06/18 03:36:51;;;;;;;10.95;6.28;;;;;;;;;;8333198;28;20048;-89
2022/06/18 03:40:54;;;;;;;10.27;6.15;;;;;;;;;;8320761;28;20049;-88
2022/06/18 03:44:56;;;;;;;9.93;6.03;;;;;;;;;;8329309;28;20657;-91
2022/06/18 03:49:01;;;;;;;9.75;6.80;;;;;;;;;;8331237;28;20088;-91
2022/06/18 03:53:07;;;;;;;9.45;6.10;;;;;;;;;;8327605;28;20053;-92
2022/06/18 03:57:17;;;;;;;10.00;5.90;;;;;;;;;;8325448;28;20046;-89
2022/06/18 04:01:22;;;;;;;10.70;7.63;;;;;;;;;;8338498;28;20037;-89
2022/06/18 04:05:25;;;;;;;11.88;6.57;;;;;;;;;;8339098;28;20056;-91
2022/06/18 04:09:29;;;;;;;11.00;6.35;;;;;;;;;;8319018;28;20049;-89
2022/06/18 04:13:31;;;;;;;10.98;7.30;;;;;;;;;;8325402;28;20041;-90
2022/06/18 04:17:34;;;;;;;9.45;6.30;;;;;;;;;;8331679;28;20056;-90
2022/06/18 04:21:37;;;;;;;11.20;6.88;;;;;;;;;;8340072;28;20103;-91
2022/06/18 04:25:41;;;;;;;8.93;6.15;;;;;;;;;;8329468;28;20052;-92
2022/06/18 04:29:44;;;;;;;9.27;6.22;;;;;;;;;;8336770;28;20087;-92
2022/06/18 04:33:46;;;;;;;10.00;6.03;;;;;;;;;;8330747;28;20062;-92
2022/06/18 04:37:49;;;;;;;10.32;6.45;;;;;;;;;;8330083;28;20471;-91
2022/06/18 04:41:53;;;;;;;9.68;5.70;;;;;;;;;;8330824;28;20491;-91
2022/06/18 04:45:56;;;;;;;10.27;6.32;;;;;;;;;;8331462;28;20049;-91
2022/06/18 04:49:59;;;;;;;10.88;6.47;;;;;;;;;;8342182;28;20045;-89
2022/06/18 04:54:02;;;;;;;8.45;5.90;;;;;;;;;;8333912;28;20091;-88
2022/06/18 04:58:07;;;;;;;9.02;5.68;;;;;;;;;;8332560;28;20053;-88
2022/06/18 05:02:16;;;;;;;9.23;5.32;;;;;;;;;;8328599;28;20394;-90
2022/06/18 05:06:19;;;;;;;8.10;5.18;;;;;;;;;;8341972;28;20051;-86
2022/06/18 05:10:23;;;;;;;10.52;4.82;;;;;;;;;;8337132;28;20060;-88
2022/06/18 05:14:27;;;;;;;9.57;5.25;;;;;;;;;;8328392;28;20493;-88
2022/06/18 05:18:33;;;;;;;8.88;4.57;;;;;;;;;;8330643;28;20053;-87
2022/06/18 05:22:36;;;;;;;8.10;4.40;;;;;;;;;;8330769;28;20046;-86
2022/06/18 05:26:38;;;;;;;10.30;5.00;;;;;;;;;;8333704;28;20044;-92
2022/06/18 05:30:43;;;;;;;12.55;7.47;;;;;;;;;;8332944;28;20045;-88
2022/06/18 05:34:45;;;;;;;8.65;5.10;;;;;;;;;;8331348;28;20053;-87
2022/06/18 05:38:49;;;;;;;9.75;4.85;;;;;;;;;;8350642;28;20045;-87
2022/06/18 05:42:53;;;;;;;9.90;7.18;;;;;;;;;;8336370;28;20050;-87
2022/06/18 05:46:58;;;;;;;7.88;4.88;;;;;;;;;;8333799;28;20047;-84
2022/06/18 05:51:02;;;;;;;6.85;3.95;;;;;;;;;;8337058;28;20503;-91
2022/06/18 05:55:05;;;;;;;8.35;3.55;;;;;;;;;;8335592;28;20120;-86
2022/06/18 05:59:10;;;;;;;9.68;4.00;;;;;;;;;;8337865;28;20455;-88
2022/06/18 06:03:15;;;;;;;7.88;4.20;;;;;;;;;;8330841;28;20676;-89
2022/06/18 06:07:21;;;;;;;6.78;4.20;;;;;;;;;;8323944;28;20484;-87
2022/06/18 06:11:30;;;;;;;4.85;3.40;;;;;;;;;;8335856;28;20041;-90
2022/06/18 06:15:34;;;;;;;5.55;2.90;;;;;;;;;;8335980;28;20580;-84
2022/06/18 06:19:38;;;;;;;4.70;3.00;;;;;;;;;;8336237;28;20060;-87
2022/06/18 06:23:41;;;;;;;7.63;2.88;;;;;;;;;;8334380;28;20056;-88
2022/06/18 06:27:45;;;;;;;4.78;2.95;;;;;;;;;;8334067;28;20048;-89
2022/06/18 06:31:47;;;;;;;4.45;2.78;;;;;;;;;;8343955;28;20046;-89
2022/06/18 06:35:52;;;;;;;7.13;2.80;;;;;;;;;;8333801;28;20048;-89
2022/06/18 06:39:55;;;;;;;6.47;2.70;;;;;;;;;;8333121;28;20128;-88
2022/06/18 06:43:58;;;;;;;5.28;2.90;;;;;;;;;;8349380;28;20087;-88
2022/06/18 06:48:01;;;;;;;4.82;2.38;;;;;;;;;;8334632;28;20041;-88
2022/06/18 06:52:06;;;;;;;6.93;2.60;;;;;;;;;;8329891;28;20048;-90
2022/06/18 07:00:32;;;;;;;3.88;2.35;;;;;;;;;;8321826;28;20516;-87
2022/06/18 07:04:36;;;;;;;4.53;2.40;;;;;;;;;;8333756;28;20050;-87
2022/06/18 07:08:40;;;;;;;5.90;2.20;;;;;;;;;;8325559;28;20096;-87
2022/06/18 07:12:45;;;;;;;5.32;2.10;;;;;;;;;;8333896;28;20057;-88
2022/06/18 07:16:50;;;;;;;4.00;1.90;;;;;;;;;;8330929;28;20052;-88
2022/06/18 07:20:53;;;;;;;5.18;2.30;;;;;;;;;;8330690;28;20103;-87
2022/06/18 07:24:57;;;;;;;4.03;2.10;;;;;;;;;;8330795;28;20152;-89
2022/06/18 07:29:00;;;;;;;3.72;2.13;;;;;;;;;;8331199;28;20048;-88
2022/06/18 07:33:03;;;;;;;5.57;2.17;;;;;;;;;;8333405;28;20067;-87
2022/06/18 07:37:07;;;;;;;4.07;2.20;;;;;;;;;;8331819;28;20042;-89
2022/06/18 07:41:11;;;;;;;4.68;2.28;;;;;;;;;;8331933;28;20048;-89
2022/06/18 07:45:19;;;;;;;2.75;2.13;;;;;;;;;;8346678;28;20053;-88
2022/06/18 07:49:22;;;;;;;4.38;2.20;;;;;;;;;;8328508;28;20408;-87
2022/06/18 07:53:26;;;;;;;3.42;2.00;;;;;;;;;;8332245;28;21738;-87
2022/06/18 07:57:32;;;;;;;5.38;2.20;;;;;;;;;;8329111;28;20049;-87
2022/06/18 08:01:35;;;;;;;4.72;1.90;;;;;;;;;;8329351;28;20455;-92
2022/06/18 08:05:39;;;;;;;2.95;1.80;;;;;;;;;;8330897;28;20045;-89
2022/06/18 08:09:42;;;;;;;4.47;2.15;;;;;;;;;;8346207;28;20125;-93
2022/06/18 08:13:48;;;;;;;4.53;2.28;;;;;;;;;;8335786;28;20048;-87
2022/06/18 08:17:51;;;;;;;2.67;1.77;;;;;;;;;;8329071;28;20037;-88
2022/06/18 08:21:54;;;;;;;5.05;1.83;;;;;;;;;;8331719;28;20056;-88
2022/06/18 08:25:57;;;;;;;4.50;1.95;;;;;;;;;;8342381;28;20474;-88
2022/06/18 08:30:03;;;;;;;3.38;2.05;;;;;;;;;;8330129;28;20041;-87
2022/06/18 08:34:07;;;;;;;2.47;1.83;;;;;;;;;;8331159;28;20107;-87
2022/06/18 08:38:10;;;;;;;3.10;2.25;;;;;;;;;;8330407;28;20067;-87
2022/06/18 08:42:41;;;;;;;4.80;2.13;;;;;;;;;;8340304;28;20480;-89
2022/06/18 08:46:52;;;;;;;6.20;2.20;;;;;;;;;;8330689;28;20045;-88
2022/06/18 08:51:05;;;;;;;3.22;2.00;;;;;;;;;;8332377;28;20124;-91
2022/06/18 08:55:16;;;;;;;2.67;1.98;;;;;;;;;;8330587;28;20536;-87
2022/06/18 08:59:29;;;;;;;3.65;1.90;;;;;;;;;;8347300;28;20122;-87
2022/06/18 09:03:44;;;;;;;4.00;2.10;;;;;;;;;;8338330;28;20495;-89
2022/06/18 09:08:24;;;;;;;6.32;2.20;;;;;;;;;;8321505;28;20045;-88
2022/06/18 09:12:31;;;;;;;5.25;2.20;;;;;;;;;;8326828;28;20413;-86
2022/06/18 09:16:41;;;;;;;7.93;2.45;;;;;;;;;;8333060;28;20052;-90
2022/06/18 09:20:51;;;;;;;2.63;1.83;;;;;;;;;;8328158;28;20057;-85
2022/06/18 09:25:02;;;;;;;4.32;1.90;;;;;;;;;;8326967;28;20504;-88
2022/06/18 09:29:13;;;;;;;4.85;1.92;;;;;;;;;;8320561;28;20048;-86
2022/06/18 09:33:17;;;;;;;;;;;;;;;;;;8339541;28;20095;-87
2022/06/18 09:37:29;;;;;;;4.28;2.40;;;;;;;;;;8328956;28;20287;-87
2022/06/18 09:41:36;;;;;;;4.20;2.00;;;;;;;;;;8329998;28;20042;-87
2022/06/18 09:45:44;;;;;;;2.40;2.05;;;;;;;;;;8329182;28;20054;-87
2022/06/18 09:49:48;;;;;;;3.25;2.08;;;;;;;;;;8329960;28;20125;-87
2022/06/18 09:53:54;;;;;;;2.80;2.00;;;;;;;;;;8330954;28;20045;-86
2022/06/18 09:58:00;;;;;;;5.75;2.85;;;;;;;;;;8316680;28;20489;-85
2022/06/18 10:02:04;;;;;;;4.18;2.05;;;;;;;;;;8328086;28;20056;-83
2022/06/18 10:10:48;;;;;;;3.97;2.47;;;;;;;;;;8275005;28;20055;-88
2022/06/18 10:14:55;;;;;;;5.50;2.47;;;;;;;;;;8290357;28;20062;-84
2022/06/18 10:19:05;;;;;;;4.22;2.20;;;;;;;;;;8292706;28;20052;-94
2022/06/18 10:23:19;;;;;;;5.05;2.22;;;;;;;;;;8297532;28;20501;-86
2022/06/18 10:27:39;;;;;;;6.38;2.65;;;;;;;;;;8293634;28;20046;-89
2022/06/18 10:31:57;;;;;;;31.77;15.03;;;;;;;;;;8296086;28;20049;-86
2022/06/18 10:36:09;;;;;;;7.70;4.55;;;;;;;;;;8296845;28;20567;-85
2022/06/18 10:40:27;;;;;;;14.35;8.52;;;;;;;;;;8306290;28;20461;-90
2022/06/18 10:44:55;;;;;;;5.00;2.00;;;;;;;;;;8331576;28;20042;-89
2022/06/18 10:49:03;;;;;;;15.18;9.77;;;;;;;;;;8320263;28;20046;-86
2022/06/18 10:53:13;;;;;;;7.18;4.05;;;;;;;;;;8328735;28;20050;-87
2022/06/18 10:57:25;;;;;;;7.45;2.63;;;;;;;;;;8333647;28;20124;-87
2022/06/18 11:01:34;;;;;;;5.18;4.15;;;;;;;;;;8329939;28;20060;-87
2022/06/18 11:05:40;;;;;;;7.93;2.47;;;;;;;;;;8321212;28;20050;-86
2022/06/18 11:09:56;;;;;;;4.25;2.65;;;;;;;;;;8317995;28;20305;-88
2022/06/18 11:14:09;;;;;;;5.43;2.30;;;;;;;;;;8315499;28;21318;-88
2022/06/18 11:18:22;;;;;;;2.80;2.03;;;;;;;;;;8333275;28;20062;-89
2022/06/18 11:22:30;;;;;;;3.33;2.15;;;;;;;;;;8334212;28;20119;-87
2022/06/18 11:26:36;;;;;;;5.38;4.10;;;;;;;;;;8316481;28;20101;-88
2022/06/18 11:30:46;;;;;;;5.43;4.60;;;;;;;;;;8319382;28;20049;-86
2022/06/18 11:35:13;;;;;;;4.65;2.50;;;;;;;;;;8313380;28;20413;-83
2022/06/18 11:39:35;;;;;;;5.32;3.03;;;;;;;;;;8314866;28;20037;-88
2022/06/18 11:43:49;;;;;;;2.90;2.00;;;;;;;;;;8327220;28;20460;-86
2022/06/18 11:48:09;;;;;;;2.90;2.17;;;;;;;;;;8333106;28;20045;-85
2022/06/18 11:52:45;;;;;;;3.17;2.10;;;;;;;;;;8333006;28;20420;-83
2022/06/18 11:56:57;;;;;;;4.03;2.20;;;;;;;;;;8335162;28;20069;-88
2022/06/18 12:01:11;;;;;;;5.25;2.38;;;;;;;;;;8325081;28;20528;-85
2022/06/18 12:05:23;;;;;;;2.70;2.20;;;;;;;;;;8340443;28;20041;-85
2022/06/18 12:09:33;;;;;;;4.50;2.03;;;;;;;;;;8340332;28;20045;-84
2022/06/18 12:13:41;;;;;;;4.72;2.30;;;;;;;;;;8325932;28;20065;-86
2022/06/18 12:17:48;;;;;;;4.93;2.33;;;;;;;;;;8327373;28;20046;-86
2022/06/18 12:21:54;;;;;;;3.58;2.30;;;;;;;;;;8327596;28;20041;-86
2022/06/18 12:26:05;;;;;;;3.92;2.35;;;;;;;;;;8325292;28;20040;-87
2022/06/18 12:30:11;;;;;;;;;;;;;;;;;;8326414;28;20041;-87
2022/06/18 12:34:25;;;;;;;4.72;2.75;;;;;;;;;;8324325;28;20373;-89
2022/06/18 12:38:40;;;;;;;3.45;2.40;;;;;;;;;;8325345;28;20106;-85
2022/06/18 12:42:55;;;;;;;3.55;2.35;;;;;;;;;;8346217;28;20045;-89
2022/06/18 12:47:10;;;;;;;6.63;2.58;;;;;;;;;;8328656;28;20573;-84
2022/06/18 12:51:21;;;;;;;4.60;2.42;;;;;;;;;;8330784;28;20045;-89
2022/06/18 12:55:31;;;;;;;4.07;2.50;;;;;;;;;;8327197;28;20053;-91
2022/06/18 12:59:41;;;;;;;6.22;2.90;;;;;;;;;;8327294;28;20410;-86
2022/06/18 13:04:19;;;;;;;3.15;2.40;;;;;;;;;;8323947;28;20084;-86
2022/06/18 13:08:54;;;;;;;6.25;2.80;;;;;;;;;;8285195;28;20084;-87
2022/06/18 13:13:17;;;;;;;3.63;2.88;;;;;;;;;;8326705;28;20041;-91
2022/06/18 13:17:29;;;;;;;3.58;2.50;;;;;;;;;;8333286;28;20496;-89
2022/06/18 13:21:37;;;;;;;8.13;2.78;;;;;;;;;;8328743;28;20049;-87
2022/06/18 13:30:10;;;;;;;4.70;2.50;;;;;;;;;;8316530;28;20045;-85
2022/06/18 13:34:20;;;;;;;;;;;;;;;;;;8318091;28;20148;-86
2022/06/18 13:39:00;;;;;;;5.88;2.95;;;;;;;;;;8318820;28;19986;-88
2022/06/18 13:43:33;;;;;;;3.92;2.67;;;;;;;;;;8310524;28;20800;-85
2022/06/18 13:47:44;;;;;;;4.43;2.63;;;;;;;;;;8317378;28;20057;-86
2022/06/18 13:52:01;;;;;;;4.63;3.58;;;;;;;;;;8317900;28;20056;-88
2022/06/18 13:56:19;;;;;;;5.07;2.65;;;;;;;;;;8314713;28;20175;-87
2022/06/18 14:00:27;;;;;;;6.35;2.42;;;;;;;;;;8334985;28;20128;-87
2022/06/18 14:04:35;;;;;;;5.75;2.92;;;;;;;;;;8320516;28;20052;-84
2022/06/18 14:08:51;;;;;;;5.93;2.67;;;;;;;;;;8325645;28;20119;-86
2022/06/18 14:13:00;;;;;;;5.82;3.00;;;;;;;;;;8316602;28;20045;-88
2022/06/18 14:17:08;;;;;;;4.00;2.60;;;;;;;;;;8318008;28;20116;-86
2022/06/18 14:21:28;;;;;;;3.80;2.70;;;;;;;;;;8338254;28;20057;-88
2022/06/18 14:26:08;;;;;;;5.85;2.92;;;;;;;;;;8318879;28;20080;-86
2022/06/18 14:30:21;;;;;;;7.28;3.22;;;;;;;;;;8322763;28;20099;-89
2022/06/18 14:34:40;;;;;;;15.57;8.25;;;;;;;;;;8326011;28;20136;-85
2022/06/18 14:38:47;;;;;;;5.25;3.50;;;;;;;;;;8333596;28;20109;-85
2022/06/18 14:43:35;;;;;;;7.90;4.38;;;;;;;;;;8312414;28;20062;-88
2022/06/18 14:48:07;;;;;;;5.50;3.08;;;;;;;;;;8294610;28;20413;-88
2022/06/18 14:52:34;;;;;;;6.00;3.30;;;;;;;;;;8326259;28;20162;-85
2022/06/18 14:57:00;;;;;;;5.63;3.50;;;;;;;;;;8296014;28;20041;-90
2022/06/18 15:06:24;;;;;;;4.85;2.55;;;;;;;;;;8316589;28;20076;-87
2022/06/18 15:10:31;;;;;;;6.60;2.85;;;;;;;;;;8322198;28;20465;-86
2022/06/18 15:14:43;;;;;;;5.43;2.67;;;;;;;;;;8340328;28;20045;-83
2022/06/18 15:18:55;;;;;;;5.13;2.40;;;;;;;;;;8342061;28;20045;-86
2022/06/18 15:23:02;;;;;;;4.97;2.72;;;;;;;;;;8345039;28;20052;-86
2022/06/18 15:27:06;;;;;;;3.72;2.88;;;;;;;;;;8332660;28;20408;-88
2022/06/18 15:31:38;;;;;;;3.70;2.42;;;;;;;;;;8333686;28;20144;-84
2022/06/18 15:35:42;;;;;;;7.53;4.75;;;;;;;;;;8297562;28;20121;-84
2022/06/18 15:39:52;;;;;;;13.15;8.32;;;;;;;;;;8333491;28;20042;-86
2022/06/18 15:43:56;;;;;;;4.82;2.90;;;;;;;;;;8339906;28;20047;-86
2022/06/18 15:48:01;;;;;;;7.30;4.45;;;;;;;;;;8333366;28;20044;-84
2022/06/18 15:52:08;;;;;;;3.45;2.70;;;;;;;;;;8332555;28;20133;-83
2022/06/18 15:56:16;;;;;;;6.32;4.28;;;;;;;;;;8323601;28;20084;-85
2022/06/18 16:00:21;;;;;;;12.50;7.65;;;;;;;;;;8332958;28;20095;-84
2022/06/18 16:04:25;;;;;;;9.02;5.47;;;;;;;;;;8319771;28;20104;-87
2022/06/18 16:08:59;;;;;;;8.57;4.50;;;;;;;;;;8331422;28;20053;-84
2022/06/18 16:13:16;;;;;;;6.63;3.60;;;;;;;;;;8332081;28;20597;-85
2022/06/18 16:17:22;;;;;;;4.75;3.00;;;;;;;;;;8345177;28;20049;-84
2022/06/18 16:21:25;;;;;;;5.82;3.50;;;;;;;;;;8328797;28;20041;-84
2022/06/18 16:25:33;;;;;;;6.35;3.38;;;;;;;;;;8327192;28;20053;-85
2022/06/18 16:29:39;;;;;;;5.30;3.72;;;;;;;;;;8331216;28;20481;-86
2022/06/18 16:33:44;;;;;;;4.05;3.08;;;;;;;;;;8331503;28;20413;-85
2022/06/18 16:37:51;;;;;;;8.65;3.47;;;;;;;;;;8329762;28;20041;-84
2022/06/18 16:41:54;;;;;;;4.50;2.92;;;;;;;;;;8336949;28;20041;-84
2022/06/18 16:45:58;;;;;;;8.48;4.82;;;;;;;;;;8331991;28;20045;-84
2022/06/18 16:50:01;;;;;;;10.13;6.28;;;;;;;;;;8330463;28;20049;-84
2022/06/18 16:54:08;;;;;;;8.30;5.30;;;;;;;;;;8331408;28;20053;-87
2022/06/18 16:58:14;;;;;;;6.65;3.60;;;;;;;;;;8329880;28;20045;-85
2022/06/18 17:02:20;;;;;;;6.65;3.40;;;;;;;;;;8330870;28;20049;-83
2022/06/18 17:06:22;;;;;;;6.22;3.55;;;;;;;;;;8329821;28;20069;-83
2022/06/18 17:10:28;;;;;;;14.68;9.10;;;;;;;;;;8330290;28;20053;-85
2022/06/18 17:14:31;;;;;;;5.47;3.13;;;;;;;;;;8328598;28;20070;-83
2022/06/18 17:18:36;;;;;;;8.45;4.95;;;;;;;;;;8344377;28;20052;-85
2022/06/18 17:22:39;;;;;;;11.63;6.28;;;;;;;;;;8330312;28;20057;-84
2022/06/18 17:31:11;;;;;;;6.05;3.97;;;;;;;;;;8339356;28;20534;-88
2022/06/18 17:35:16;;;;;;;5.50;2.60;;;;;;;;;;8340964;28;20144;-82
2022/06/18 17:39:19;;;;;;;4.97;2.53;;;;;;;;;;8338589;28;20049;-88
2022/06/18 17:43:23;;;;;;;4.38;2.90;;;;;;;;;;8340996;28;20045;-84
2022/06/18 17:47:26;;;;;;;4.28;2.70;;;;;;;;;;8350836;28;20048;-83
2022/06/18 17:51:32;;;;;;;4.38;2.55;;;;;;;;;;8342723;28;20045;-84
2022/06/18 17:55:37;;;;;;;3.75;2.72;;;;;;;;;;8332624;28;20041;-88
2022/06/18 17:59:40;;;;;;;5.30;2.65;;;;;;;;;;8338191;28;20041;-84
2022/06/18 18:03:43;;;;;;;3.97;2.55;;;;;;;;;;8338112;28;20107;-83
2022/06/18 18:07:48;;;;;;;5.03;3.05;;;;;;;;;;8338543;28;20049;-84
2022/06/18 18:11:53;;;;;;;4.05;2.92;;;;;;;;;;8340681;28;20547;-83
2022/06/18 18:16:13;;;;;;;5.50;2.65;;;;;;;;;;8329212;28;20050;-89
2022/06/18 18:20:22;;;;;;;3.30;2.50;;;;;;;;;;8331322;28;20044;-83
2022/06/18 18:24:28;;;;;;;5.80;2.65;;;;;;;;;;8331356;28;20053;-88
2022/06/18 18:28:33;;;;;;;5.55;2.80;;;;;;;;;;8335549;28;20087;-86
2022/06/18 18:32:38;;;;;;;4.60;2.78;;;;;;;;;;8335602;28;20092;-84
2022/06/18 18:36:42;;;;;;;4.20;2.95;;;;;;;;;;8334528;28;20045;-90
2022/06/18 18:40:57;;;;;;;4.75;3.17;;;;;;;;;;8329366;28;20057;-84
2022/06/18 18:45:05;;;;;;;6.38;3.22;;;;;;;;;;8314779;28;20052;-85
2022/06/18 18:49:09;;;;;;;5.00;3.03;;;;;;;;;;8322862;28;20057;-89
2022/06/18 18:53:13;;;;;;;3.75;2.70;;;;;;;;;;8330100;28;20202;-92
2022/06/18 18:57:19;;;;;;;4.82;3.45;;;;;;;;;;8332375;28;20125;-85
2022/06/18 19:01:26;;;;;;;5.68;3.13;;;;;;;;;;8332486;28;20513;-86
2022/06/18 19:05:30;;;;;;;6.93;3.28;;;;;;;;;;8321094;28;20401;-89
2022/06/18 19:09:34;;;;;;;5.90;3.90;;;;;;;;;;8308418;28;20041;-84
2022/06/18 19:13:43;;;;;;;7.13;3.88;;;;;;;;;;8315931;28;20052;-84
2022/06/18 19:18:01;;;;;;;6.32;4.10;;;;;;;;;;8301734;28;20054;-86
2022/06/18 19:22:26;;;;;;;9.35;4.53;;;;;;;;;;8303564;28;20100;-84
2022/06/18 19:26:30;;;;;;;8.23;4.70;;;;;;;;;;8328763;28;20052;-83
2022/06/18 19:30:43;;;;;;;6.75;4.47;;;;;;;;;;8334216;28;20512;-83
2022/06/18 19:34:54;;;;;;;10.40;4.60;;;;;;;;;;8332329;28;20045;-84
2022/06/18 19:39:05;;;;;;;6.82;4.43;;;;;;;;;;8333740;28;20052;-84
2022/06/18 19:43:14;;;;;;;7.55;5.07;;;;;;;;;;8333294;28;20041;-83
2022/06/18 19:47:22;;;;;;;8.25;4.15;;;;;;;;;;8331366;28;20053;-83
2022/06/18 19:51:30;;;;;;;9.80;4.90;;;;;;;;;;8330154;28;20060;-83
2022/06/18 19:55:34;;;;;;;7.00;4.57;;;;;;;;;;8331468;28;20054;-83
2022/06/18 19:59:40;;;;;;;8.13;4.10;;;;;;;;;;8325656;28;20129;-83
2022/06/18 20:03:47;;;;;;;9.80;5.15;;;;;;;;;;8327416;28;20053;-84
2022/06/18 20:07:50;;;;;;;8.73;4.78;;;;;;;;;;8332643;28;20045;-85
2022/06/18 20:11:54;;;;;;;6.55;4.78;;;;;;;;;;8331803;28;20499;-83
2022/06/18 20:15:57;;;;;;;7.57;5.05;;;;;;;;;;8332713;28;20045;-83
2022/06/18 20:20:02;;;;;;;8.20;5.00;;;;;;;;;;8331335;28;20484;-83
2022/06/18 20:24:06;;;;;;;9.90;5.20;;;;;;;;;;8332532;28;20041;-83
2022/06/18 20:28:10;;;;;;;7.53;4.97;;;;;;;;;;8332044;28;20044;-83
2022/06/18 20:32:15;;;;;;;6.95;4.90;;;;;;;;;;8330254;28;20056;-83
2022/06/18 20:36:20;;;;;;;12.30;5.40;;;;;;;;;;8323748;28;20049;-83
2022/06/18 20:40:23;;;;;;;8.43;5.25;;;;;;;;;;8329719;28;20045;-83
2022/06/18 20:44:27;;;;;;;8.15;5.30;;;;;;;;;;8342210;28;20563;-92
2022/06/18 20:48:43;;;;;;;10.98;5.72;;;;;;;;;;8316644;28;20072;-91
2022/06/18 20:53:05;;;;;;;10.65;5.25;;;;;;;;;;8319281;28;20068;-84
2022/06/18 20:57:20;;;;;;;7.40;5.32;;;;;;;;;;8320685;28;20044;-84
2022/06/18 21:01:48;;;;;;;8.48;5.68;;;;;;;;;;8324994;28;20040;-84
2022/06/18 21:05:54;;;;;;;8.70;5.90;;;;;;;;;;8329367;28;20046;-91
2022/06/18 21:10:16;;;;;;;10.00;5.90;;;;;;;;;;8328959;28;20565;-84
2022/06/18 21:19:25;;;;;;;9.98;5.40;;;;;;;;;;8327649;28;20408;-94
2022/06/18 21:23:43;;;;;;;9.52;5.90;;;;;;;;;;8327005;28;20457;-87
2022/06/18 21:27:53;;;;;;;7.53;5.40;;;;;;;;;;8325781;28;20057;-92
2022/06/18 21:40:47;;;;;;;9.98;5.72;;;;;;;;;;8327144;28;20067;-84
2022/06/18 21:44:52;;;;;;;11.60;5.47;;;;;;;;;;8328135;28;20049;-84
2022/06/18 21:48:56;;;;;;;9.82;5.60;;;;;;;;;;8327666;28;20478;-84
2022/06/18 21:52:59;;;;;;;11.32;6.75;;;;;;;;;;8330840;28;20049;-84
2022/06/18 21:57:06;;;;;;;9.55;6.63;;;;;;;;;;8328811;28;20045;-94
2022/06/18 22:01:11;;;;;;;10.52;6.28;;;;;;;;;;8326424;28;20045;-84
2022/06/18 22:05:15;;;;;;;11.43;6.32;;;;;;;;;;8325022;28;20049;-83
2022/06/18 22:09:18;;;;;;;11.70;5.93;;;;;;;;;;8320021;28;20041;-83
2022/06/18 22:17:43;;;;;;;11.85;6.85;;;;;;;;;;8331229;28;20045;-84
2022/06/18 22:21:46;;;;;;;9.23;5.93;;;;;;;;;;8346589;28;20049;-84
2022/06/18 22:25:50;;;;;;;11.30;6.72;;;;;;;;;;8342846;28;20095;-84
2022/06/18 22:29:54;;;;;;;11.95;6.63;;;;;;;;;;8321453;28;20465;-83
2022/06/18 22:33:58;;;;;;;9.80;6.25;;;;;;;;;;8334706;28;20560;-85
2022/06/18 22:38:01;;;;;;;10.93;6.68;;;;;;;;;;8341818;28;20045;-85
2022/06/18 22:42:05;;;;;;;13.18;6.28;;;;;;;;;;8337342;28;20038;-84
2022/06/18 22:46:07;;;;;;;8.35;6.20;;;;;;;;;;8335065;28;20048;-85
2022/06/18 22:50:19;;;;;;;11.90;6.50;;;;;;;;;;8336152;28;20366;-84
2022/06/18 22:54:25;;;;;;;8.95;6.07;;;;;;;;;;8332284;28;20126;-96
2022/06/18 22:58:27;;;;;;;9.45;6.00;;;;;;;;;;8329014;28;20419;-84
2022/06/18 23:02:30;;;;;;;9.20;6.32;;;;;;;;;;8333450;28;20495;-92
2022/06/18 23:06:34;;;;;;;9.38;6.45;;;;;;;;;;8332689;28;20041;-85
2022/06/18 23:10:39;;;;;;;11.35;5.63;;;;;;;;;;8331802;28;20563;-85
2022/06/18 23:14:45;;;;;;;10.50;6.65;;;;;;;;;;8332024;28;20045;-85
2022/06/18 23:18:47;;;;;;;11.13;6.53;;;;;;;;;;8333160;28;20046;-86
2022/06/18 23:22:52;;;;;;;11.75;5.90;;;;;;;;;;8327492;28;20095;-86
2022/06/18 23:26:56;;;;;;;10.75;5.68;;;;;;;;;;8329883;28;20046;-85
2022/06/18 23:30:59;;;;;;;9.68;6.03;;;;;;;;;;8329776;28;20056;-84
2022/06/18 23:35:05;;;;;;;12.65;6.35;;;;;;;;;;8325766;28;20050;-85
2022/06/18 23:39:09;;;;;;;8.90;5.95;;;;;;;;;;8334020;28;20041;-85
2022/06/18 23:43:15;;;;;;;8.30;5.95;;;;;;;;;;8328847;28;20038;-85
2022/06/18 23:47:18;;;;;;;13.98;6.20;;;;;;;;;;8321644;28;20038;-85
2022/06/18 23:51:20;;;;;;;9.63;6.22;;;;;;;;;;8327850;28;20132;-86
2022/06/18 23:55:24;;;;;;;9.32;6.10;;;;;;;;;;8331939;28;20049;-85
2022/06/18 23:59:30;;;;;;;7.70;5.57;;;;;;;;;;8331652;28;20543;-94
